Time;durP1;ratioP1;P1;durP2;ratioP2;P2;SDS_P1;SDS_P2;PMS_P1;PMS_P2;Temp;Humidity;BMP_temperature;BMP_pressure;BME280_temperature;BME280_humidity;BME280_pressure;Samples;Min_cycle;Max_cycle;Signal;HPM_P1;HPM_P2
2021/06/14 00:02:09;;;;;;;8.87;6.00;;;13.00;99.90;;;;;;5074509;28;20309;-65
2021/06/14 00:04:36;;;;;;;8.13;5.90;;;13.00;99.90;;;;;;5074533;28;20296;-67
2021/06/14 00:07:05;;;;;;;6.80;6.10;;;13.00;99.90;;;;;;5074492;28;20606;-66
2021/06/14 00:09:32;;;;;;;8.60;6.23;;;12.90;99.90;;;;;;5074083;28;20605;-66
2021/06/14 00:12:01;;;;;;;10.23;6.03;;;12.90;99.90;;;;;;5074072;28;20280;-66
2021/06/14 00:14:29;;;;;;;9.45;6.93;;;12.90;99.90;;;;;;5074398;28;20646;-65
2021/06/14 00:16:57;;;;;;;9.97;6.43;;;12.90;99.90;;;;;;5074308;28;20224;-66
2021/06/14 00:19:27;;;;;;;9.30;6.70;;;12.80;99.90;;;;;;5074185;28;20224;-67
2021/06/14 00:21:55;;;;;;;8.30;6.50;;;12.80;99.90;;;;;;5073900;28;20217;-65
2021/06/14 00:24:22;;;;;;;8.17;6.03;;;12.70;99.90;;;;;;5073936;28;20209;-65
2021/06/14 00:26:50;;;;;;;8.77;6.37;;;12.60;99.90;;;;;;5073868;28;20613;-66
2021/06/14 00:29:18;;;;;;;7.63;6.35;;;12.60;99.90;;;;;;5074141;28;20196;-66
2021/06/14 00:31:46;;;;;;;8.77;6.63;;;12.50;99.90;;;;;;5073740;28;20211;-66
2021/06/14 00:34:14;;;;;;;9.93;6.30;;;12.40;99.90;;;;;;5073236;28;20235;-65
2021/06/14 00:36:43;;;;;;;9.13;6.27;;;12.50;99.90;;;;;;5073678;28;20193;-66
2021/06/14 00:39:11;;;;;;;10.07;6.57;;;12.50;99.90;;;;;;5073676;28;20292;-66
2021/06/14 00:41:39;;;;;;;7.40;6.60;;;12.50;99.90;;;;;;5073581;28;20288;-66
2021/06/14 00:44:07;;;;;;;7.00;6.17;;;12.50;99.90;;;;;;5073807;28;20291;-76
2021/06/14 00:46:35;;;;;;;9.63;6.70;;;12.50;99.90;;;;;;5073794;28;20649;-75
2021/06/14 00:49:03;;;;;;;8.10;6.50;;;12.50;99.90;;;;;;5073692;28;20200;-75
2021/06/14 00:51:31;;;;;;;8.77;6.77;;;12.50;99.90;;;;;;5079185;28;20287;-75
2021/06/14 00:54:02;;;;;;;10.70;7.17;;;12.50;99.90;;;;;;5093545;28;20196;-75
2021/06/14 00:56:30;;;;;;;8.67;6.33;;;12.40;99.90;;;;;;5093783;28;20279;-76
2021/06/14 00:58:58;;;;;;;8.00;6.93;;;12.40;99.90;;;;;;5093681;28;20390;-76
2021/06/14 01:01:26;;;;;;;10.27;7.17;;;12.30;99.90;;;;;;5093675;28;20207;-76
2021/06/14 01:03:54;;;;;;;8.83;7.30;;;12.30;99.90;;;;;;5093624;28;20224;-76
2021/06/14 01:06:22;;;;;;;9.87;7.40;;;12.30;99.90;;;;;;5093557;28;20224;-77
2021/06/14 01:08:52;;;;;;;9.00;7.03;;;12.20;99.90;;;;;;5093143;28;20668;-76
2021/06/14 01:11:29;;;;;;;8.93;6.97;;;12.20;99.90;;;;;;5093635;28;20208;-76
2021/06/14 01:14:03;;;;;;;9.70;6.90;;;12.10;99.90;;;;;;5094013;28;20190;-76
2021/06/14 01:16:38;;;;;;;9.57;7.63;;;12.10;99.90;;;;;;5104472;28;20251;-75
2021/06/14 01:19:22;;;;;;;8.70;7.57;;;12.10;99.90;;;;;;5104129;28;20188;-76
2021/06/14 01:22:09;;;;;;;8.43;7.03;;;12.10;99.90;;;;;;5095505;28;20608;-77
2021/06/14 01:24:49;;;;;;;8.47;7.07;;;12.10;99.90;;;;;;5092387;28;20180;-76
2021/06/14 01:27:38;;;;;;;8.43;7.27;;;12.10;99.90;;;;;;5093038;28;20231;-76
2021/06/14 01:30:09;;;;;;;8.93;7.43;;;12.10;99.90;;;;;;5092697;28;20688;-76
2021/06/14 01:32:39;;;;;;;8.87;6.97;;;12.10;99.90;;;;;;5093187;28;20208;-75
2021/06/14 01:35:09;;;;;;;11.03;7.27;;;12.10;99.90;;;;;;5093215;28;20195;-76
2021/06/14 01:37:41;;;;;;;8.57;6.93;;;12.20;99.90;;;;;;5092407;28;20224;-76
2021/06/14 01:40:11;;;;;;;10.67;7.90;;;12.20;99.90;;;;;;5093178;28;20279;-76
2021/06/14 01:42:42;;;;;;;7.97;6.90;;;12.10;99.90;;;;;;5092609;28;20216;-77
2021/06/14 01:45:11;;;;;;;8.67;6.63;;;12.10;99.90;;;;;;5092748;28;20628;-76
2021/06/14 01:47:39;;;;;;;7.97;7.10;;;12.10;99.90;;;;;;5092878;28;20207;-75
2021/06/14 01:50:08;;;;;;;9.80;7.00;;;12.10;99.90;;;;;;5092848;28;20200;-75
2021/06/14 01:52:36;;;;;;;9.30;7.10;;;12.00;99.90;;;;;;5077263;28;20193;-74
2021/06/14 01:55:05;;;;;;;8.50;7.70;;;12.00;99.90;;;;;;5072519;28;20295;-76
2021/06/14 01:57:35;;;;;;;8.70;7.43;;;12.00;99.90;;;;;;5072340;28;20657;-75
2021/06/14 02:00:06;;;;;;;9.13;7.40;;;11.90;99.90;;;;;;5072482;28;20208;-75
2021/06/14 02:02:35;;;;;;;8.60;7.17;;;11.90;99.90;;;;;;5072413;28;20204;-76
2021/06/14 02:05:03;;;;;;;8.77;7.10;;;11.80;99.90;;;;;;5072620;28;20201;-76
2021/06/14 02:07:32;;;;;;;10.07;7.87;;;11.80;99.90;;;;;;5072454;28;20201;-75
2021/06/14 02:09:59;;;;;;;10.73;8.07;;;11.80;99.90;;;;;;5072667;28;20207;-75
2021/06/14 02:12:29;;;;;;;8.40;7.50;;;11.80;99.90;;;;;;5072667;28;20303;-75
2021/06/14 02:14:57;;;;;;;10.27;7.60;;;11.80;99.90;;;;;;5072995;28;20307;-74
2021/06/14 02:17:30;;;;;;;9.17;7.80;;;11.80;99.90;;;;;;5072605;28;20239;-76
2021/06/14 02:19:59;;;;;;;9.97;8.03;;;11.80;99.90;;;;;;5072437;28;20203;-75
2021/06/14 02:22:28;;;;;;;10.93;7.90;;;11.70;99.90;;;;;;5072041;28;20207;-75
2021/06/14 02:24:55;;;;;;;10.90;7.97;;;11.70;99.90;;;;;;5072308;28;20780;-75
2021/06/14 02:27:23;;;;;;;10.33;7.90;;;11.70;99.90;;;;;;5071751;28;20236;-75
2021/06/14 02:29:51;;;;;;;10.40;8.00;;;11.80;99.90;;;;;;5072221;28;20206;-76
2021/06/14 02:32:19;;;;;;;8.27;7.23;;;11.80;99.90;;;;;;5072012;28;20532;-76
2021/06/14 02:34:49;;;;;;;9.50;7.90;;;11.80;99.90;;;;;;5072875;28;20305;-76
2021/06/14 02:37:17;;;;;;;8.97;7.83;;;11.70;99.90;;;;;;5076109;28;20287;-76
2021/06/14 02:39:48;;;;;;;10.87;8.00;;;11.70;99.90;;;;;;5076135;28;20637;-74
2021/06/14 02:42:17;;;;;;;12.17;7.80;;;11.70;99.90;;;;;;5076055;28;20267;-75
2021/06/14 02:44:47;;;;;;;10.67;7.87;;;11.70;99.90;;;;;;5075718;28;20700;-76
2021/06/14 02:47:17;;;;;;;9.37;8.40;;;11.70;99.90;;;;;;5076027;28;20295;-75
2021/06/14 02:49:46;;;;;;;8.20;7.40;;;11.80;99.90;;;;;;5075890;28;20633;-74
2021/06/14 02:52:17;;;;;;;10.07;7.60;;;11.80;99.90;;;;;;5087999;28;20210;-77
2021/06/14 02:54:51;;;;;;;10.00;7.93;;;11.80;99.90;;;;;;5096567;28;20183;-77
2021/06/14 02:57:22;;;;;;;8.23;7.37;;;11.90;99.90;;;;;;5096103;28;20591;-76
2021/06/14 02:59:52;;;;;;;11.53;8.23;;;11.90;99.90;;;;;;5096108;28;20187;-76
2021/06/14 03:02:20;;;;;;;11.17;7.87;;;11.90;99.90;;;;;;5095971;28;20562;-78
2021/06/14 03:04:48;;;;;;;10.00;7.27;;;12.00;99.90;;;;;;5095625;28;20310;-75
2021/06/14 03:07:20;;;;;;;11.03;7.80;;;12.00;99.90;;;;;;5095290;28;20239;-75
2021/06/14 03:09:49;;;;;;;9.27;7.60;;;11.90;99.90;;;;;;5095757;28;20644;-76
2021/06/14 03:12:17;;;;;;;9.23;7.63;;;11.90;99.90;;;;;;5095590;28;20313;-75
2021/06/14 03:14:46;;;;;;;8.60;7.63;;;11.90;99.90;;;;;;5095827;28;20200;-76
2021/06/14 03:17:15;;;;;;;10.00;8.17;;;11.90;99.90;;;;;;5095639;28;20283;-76
2021/06/14 03:19:46;;;;;;;10.27;7.37;;;11.90;99.90;;;;;;5095760;28;20204;-75
2021/06/14 03:22:15;;;;;;;9.00;7.83;;;11.80;99.90;;;;;;5095399;28;20369;-77
2021/06/14 03:24:44;;;;;;;10.10;8.47;;;11.90;99.90;;;;;;5095581;28;20226;-76
2021/06/14 03:27:15;;;;;;;9.93;8.20;;;11.80;99.90;;;;;;5095086;28;20595;-77
2021/06/14 03:29:44;;;;;;;9.00;7.83;;;11.80;99.90;;;;;;5095624;28;20181;-75
2021/06/14 03:32:13;;;;;;;9.77;7.33;;;11.80;99.90;;;;;;5095439;28;20199;-73
2021/06/14 03:34:42;;;;;;;11.07;7.93;;;11.80;99.90;;;;;;5095569;28;20204;-76
2021/06/14 03:37:11;;;;;;;9.03;7.43;;;11.80;99.90;;;;;;5095545;28;20200;-75
2021/06/14 03:39:40;;;;;;;9.97;7.20;;;11.80;99.90;;;;;;5095812;28;20196;-74
2021/06/14 03:42:09;;;;;;;11.27;8.13;;;11.90;99.90;;;;;;5095363;28;20211;-75
2021/06/14 03:44:38;;;;;;;8.77;7.87;;;12.00;99.90;;;;;;5095267;28;20216;-75
2021/06/14 03:47:06;;;;;;;8.67;7.50;;;12.10;99.90;;;;;;5096892;28;20250;-76
2021/06/14 03:49:34;;;;;;;9.03;7.73;;;12.10;99.90;;;;;;5099139;28;20648;-77
2021/06/14 03:52:02;;;;;;;10.60;7.97;;;12.10;99.90;;;;;;5090136;28;20712;-75
2021/06/14 03:54:29;;;;;;;9.80;7.77;;;12.20;99.90;;;;;;5080136;28;20289;-76
2021/06/14 03:56:57;;;;;;;11.57;8.17;;;12.10;99.90;;;;;;5078547;28;20232;-75
2021/06/14 03:59:27;;;;;;;10.20;8.03;;;12.20;99.90;;;;;;5079955;28;20301;-75
2021/06/14 04:01:54;;;;;;;11.10;8.57;;;12.30;99.90;;;;;;5078534;28;20207;-74
2021/06/14 04:04:36;;;;;;;10.90;7.80;;;12.40;99.90;;;;;;5078470;28;20220;-75
2021/06/14 04:07:05;;;;;;;9.00;8.10;;;12.50;99.90;;;;;;5076942;28;20231;-75
2021/06/14 04:09:33;;;;;;;11.43;7.87;;;12.50;99.90;;;;;;5076070;28;20283;-76
2021/06/14 04:12:01;;;;;;;10.60;8.70;;;12.80;99.90;;;;;;5078733;28;20231;-75
2021/06/14 04:14:30;;;;;;;9.10;8.17;;;12.80;99.90;;;;;;5077906;28;20753;-75
2021/06/14 04:16:58;;;;;;;9.37;7.60;;;12.90;99.90;;;;;;5076884;28;20304;-75
2021/06/14 04:19:26;;;;;;;9.77;8.23;;;12.90;99.90;;;;;;5075334;28;20310;-75
2021/06/14 04:21:54;;;;;;;9.37;7.53;;;12.90;99.90;;;;;;5074255;28;20291;-75
2021/06/14 04:24:22;;;;;;;9.63;7.63;;;13.00;99.90;;;;;;5073976;28;20316;-74
2021/06/14 04:26:50;;;;;;;10.13;7.87;;;13.10;99.90;;;;;;5073537;28;20236;-77
2021/06/14 04:29:18;;;;;;;8.67;7.80;;;13.20;99.90;;;;;;5074024;28;20196;-76
2021/06/14 04:31:47;;;;;;;8.43;7.47;;;13.20;99.90;;;;;;5074043;28;20219;-75
2021/06/14 04:34:15;;;;;;;8.33;7.47;;;13.30;99.90;;;;;;5073913;28;20200;-77
2021/06/14 04:36:43;;;;;;;10.50;8.40;;;13.40;99.90;;;;;;5074152;28;20258;-76
2021/06/14 04:39:11;;;;;;;8.90;7.57;;;13.50;99.90;;;;;;5073354;28;20215;-75
2021/06/14 04:41:39;;;;;;;8.47;7.20;;;13.50;99.90;;;;;;5073633;28;20621;-75
2021/06/14 04:44:07;;;;;;;8.60;7.70;;;13.60;99.90;;;;;;5073436;28;20215;-75
2021/06/14 04:46:35;;;;;;;9.33;8.03;;;13.80;99.90;;;;;;5073662;28;20240;-74
2021/06/14 04:49:05;;;;;;;8.20;7.40;;;14.10;99.90;;;;;;5073676;28;20223;-75
2021/06/14 04:51:36;;;;;;;12.50;7.40;;;14.70;99.90;;;;;;5079787;28;20215;-74
2021/06/14 04:54:04;;;;;;;9.38;6.47;;;16.30;99.90;;;;;;5093471;28;20200;-74
2021/06/14 04:56:32;;;;;;;8.65;5.72;;;18.70;99.90;;;;;;5094021;28;20259;-73
2021/06/14 04:59:00;;;;;;;9.75;5.53;;;21.10;99.90;;;;;;5092747;28;20197;-74
2021/06/14 05:01:28;;;;;;;6.50;4.47;;;23.00;99.90;;;;;;5093401;28;20302;-73
2021/06/14 05:03:56;;;;;;;5.10;4.18;;;24.70;99.90;;;;;;5086308;28;20561;-73
2021/06/14 05:06:26;;;;;;;5.97;4.95;;;26.20;99.90;;;;;;5073018;28;20259;-73
2021/06/14 05:08:53;;;;;;;8.25;5.75;;;27.40;99.90;;;;;;5072966;28;20196;-69
2021/06/14 05:11:21;;;;;;;6.35;4.78;;;28.20;99.90;;;;;;5073031;28;20293;-74
2021/06/14 05:13:49;;;;;;;6.15;4.70;;;28.30;99.90;;;;;;5072562;28;20201;-73
2021/06/14 05:16:17;;;;;;;4.97;4.25;;;28.80;99.60;;;;;;5072742;28;20280;-74
2021/06/14 05:18:45;;;;;;;7.03;5.28;;;;;;;;;;5072638;28;20283;-72
2021/06/14 05:21:13;;;;;;;5.60;5.05;;;29.30;97.30;;;;;;5072911;28;20211;-75
2021/06/14 05:23:42;;;;;;;5.97;4.25;;;29.40;97.20;;;;;;5072788;28;20291;-73
2021/06/14 05:26:10;;;;;;;6.25;5.03;;;28.90;97.60;;;;;;5072600;28;20308;-73
2021/06/14 05:28:38;;;;;;;9.85;5.10;;;29.00;97.00;;;;;;5072555;28;20335;-72
2021/06/14 05:31:06;;;;;;;6.88;5.93;;;28.90;96.80;;;;;;5072703;28;20295;-74
2021/06/14 05:33:34;;;;;;;6.03;5.25;;;28.40;97.00;;;;;;5072418;28;20721;-75
2021/06/14 05:36:02;;;;;;;8.00;5.55;;;27.60;97.70;;;;;;5072394;28;20313;-73
2021/06/14 05:38:29;;;;;;;8.25;5.18;;;26.60;99.10;;;;;;5072568;28;20295;-74
2021/06/14 05:40:59;;;;;;;9.80;6.70;;;26.00;99.90;;;;;;5072372;28;20231;-74
2021/06/14 05:43:26;;;;;;;8.52;6.85;;;25.10;99.90;;;;;;5072571;28;20239;-73
2021/06/14 05:45:54;;;;;;;7.85;6.30;;;23.90;99.90;;;;;;5072581;28;20226;-72
2021/06/14 05:48:23;;;;;;;7.18;6.38;;;22.60;99.90;;;;;;5072626;28;20844;-75
2021/06/14 05:50:51;;;;;;;9.75;6.55;;;21.50;99.90;;;;;;5073113;28;20730;-75
2021/06/14 05:53:21;;;;;;;6.78;6.03;;;20.70;99.90;;;;;;5092366;28;20199;-74
2021/06/14 05:55:49;;;;;;;7.60;5.97;;;19.80;99.90;;;;;;5078211;28;20243;-73
2021/06/14 05:58:18;;;;;;;10.13;7.03;;;19.50;99.90;;;;;;5073213;28;20228;-74
2021/06/14 06:00:46;;;;;;;10.68;7.25;;;19.50;99.90;;;;;;5075944;28;20295;-73
2021/06/14 06:03:14;;;;;;;7.55;6.60;;;19.20;99.90;;;;;;5075569;28;20205;-74
2021/06/14 06:05:42;;;;;;;10.60;7.18;;;19.10;99.90;;;;;;5072937;28;20250;-73
2021/06/14 06:08:10;;;;;;;11.93;7.20;;;18.90;99.90;;;;;;5071984;28;20652;-69
2021/06/14 06:10:38;;;;;;;7.78;6.22;;;18.80;99.90;;;;;;5074423;28;20287;-68
2021/06/14 06:13:06;;;;;;;8.75;6.38;;;18.90;99.90;;;;;;5076613;28;20231;-70
2021/06/14 06:15:35;;;;;;;10.93;6.82;;;19.00;99.90;;;;;;5076432;28;20193;-68
2021/06/14 06:18:04;;;;;;;9.48;6.70;;;19.10;99.90;;;;;;5076220;28;20197;-69
2021/06/14 06:20:33;;;;;;;9.52;6.72;;;19.30;99.90;;;;;;5076621;28;20205;-70
2021/06/14 06:23:01;;;;;;;11.88;6.45;;;19.40;99.90;;;;;;5076030;28;20200;-71
2021/06/14 06:25:29;;;;;;;9.95;6.85;;;19.60;99.90;;;;;;5064653;28;20376;-67
2021/06/14 06:27:58;;;;;;;7.82;6.68;;;19.50;99.90;;;;;;5070322;28;20224;-68
2021/06/14 06:30:28;;;;;;;13.70;6.35;;;19.60;99.90;;;;;;5093393;28;20207;-67
2021/06/14 06:32:58;;;;;;;8.30;6.00;;;19.60;99.90;;;;;;5093319;28;20231;-67
2021/06/14 06:35:26;;;;;;;10.55;6.20;;;19.70;99.90;;;;;;5093248;28;20203;-67
2021/06/14 06:37:54;;;;;;;10.05;5.82;;;19.90;99.90;;;;;;5092877;28;20200;-67
2021/06/14 06:40:21;;;;;;;7.20;5.97;;;19.80;99.90;;;;;;5093264;28;20291;-65
2021/06/14 06:42:51;;;;;;;7.43;5.30;;;19.70;99.90;;;;;;5093194;28;20200;-67
2021/06/14 06:45:20;;;;;;;8.45;5.55;;;19.80;99.90;;;;;;5093294;28;20243;-66
2021/06/14 06:47:48;;;;;;;8.65;5.60;;;19.80;99.90;;;;;;5093390;28;20224;-66
2021/06/14 06:50:18;;;;;;;7.97;5.03;;;19.80;99.90;;;;;;5093109;28;20316;-73
2021/06/14 06:52:46;;;;;;;6.68;4.80;;;19.70;99.90;;;;;;5076852;28;20276;-75
2021/06/14 06:55:17;;;;;;;9.10;5.05;;;19.80;99.90;;;;;;5074474;28;20203;-79
2021/06/14 06:57:45;;;;;;;6.75;4.82;;;19.80;99.90;;;;;;5073215;28;20195;-79
2021/06/14 07:00:16;;;;;;;7.82;4.80;;;20.00;99.90;;;;;;5072756;28;20295;-78
2021/06/14 07:02:44;;;;;;;8.63;4.63;;;20.00;99.90;;;;;;5072845;28;20185;-75
2021/06/14 07:05:34;;;;;;;7.25;5.18;;;20.10;99.90;;;;;;5072228;28;20228;-76
2021/06/14 07:08:02;;;;;;;8.43;4.53;;;20.10;99.90;;;;;;5072313;28;20208;-75
2021/06/14 07:10:31;;;;;;;7.85;4.22;;;20.10;99.90;;;;;;5072821;28;20215;-76
2021/06/14 07:12:59;;;;;;;6.20;4.22;;;20.10;99.90;;;;;;5072712;28;20211;-72
2021/06/14 07:15:27;;;;;;;6.68;4.38;;;20.10;99.90;;;;;;5072658;28;20204;-71
2021/06/14 07:17:55;;;;;;;8.05;3.80;;;20.10;99.90;;;;;;5071998;28;20664;-74
2021/06/14 07:20:23;;;;;;;5.28;3.75;;;20.00;99.90;;;;;;5071667;28;20283;-75
2021/06/14 07:22:53;;;;;;;7.75;4.65;;;20.10;99.90;;;;;;5070774;28;20209;-72
2021/06/14 07:25:22;;;;;;;6.68;4.47;;;20.10;99.90;;;;;;5070337;28;20283;-72
2021/06/14 07:27:50;;;;;;;6.70;4.47;;;20.10;99.90;;;;;;5061316;28;20267;-69
2021/06/14 07:30:32;;;;;;;4.93;3.80;;;20.10;99.90;;;;;;5073240;28;20284;-81
2021/06/14 07:33:00;;;;;;;6.22;3.97;;;20.20;99.90;;;;;;5071804;28;20181;-76
2021/06/14 07:35:33;;;;;;;7.82;3.95;;;20.30;99.90;;;;;;5073509;28;20359;-79
2021/06/14 07:38:02;;;;;;;6.82;3.65;;;20.30;99.90;;;;;;5072572;28;20593;-74
2021/06/14 07:40:31;;;;;;;5.78;3.60;;;20.20;99.90;;;;;;5083865;28;20285;-75
2021/06/14 07:42:59;;;;;;;5.00;3.67;;;20.10;99.90;;;;;;5091835;28;20200;-76
2021/06/14 07:45:27;;;;;;;6.43;3.70;;;20.00;99.90;;;;;;5091904;28;20226;-70
2021/06/14 07:47:55;;;;;;;5.57;3.50;;;20.10;99.90;;;;;;5091619;28;20301;-70
2021/06/14 07:50:23;;;;;;;6.38;3.80;;;20.10;99.90;;;;;;5082696;28;20215;-69
2021/06/14 07:52:50;;;;;;;6.25;3.97;;;20.30;99.90;;;;;;5088818;28;20293;-76
2021/06/14 07:55:20;;;;;;;6.95;4.10;;;20.30;99.90;;;;;;5091756;28;20208;-78
2021/06/14 07:57:48;;;;;;;6.55;3.63;;;20.30;99.90;;;;;;5091738;28;20192;-76
2021/06/14 08:00:17;;;;;;;7.22;4.30;;;20.30;99.90;;;;;;5091887;28;20200;-80
2021/06/14 08:02:47;;;;;;;8.73;4.28;;;20.30;99.90;;;;;;5091379;28;20204;-77
2021/06/14 08:05:15;;;;;;;6.47;3.70;;;20.30;99.90;;;;;;5091245;28;20242;-74
2021/06/14 08:07:43;;;;;;;6.07;3.78;;;20.20;99.90;;;;;;5091121;28;20302;-72
2021/06/14 08:10:15;;;;;;;6.75;4.28;;;20.20;99.90;;;;;;5091070;28;20199;-71
2021/06/14 08:12:49;;;;;;;6.55;4.35;;;20.10;99.90;;;;;;5090852;28;20184;-70
2021/06/14 08:15:19;;;;;;;8.27;4.90;;;20.10;99.90;;;;;;5091181;28;20284;-71
2021/06/14 08:17:48;;;;;;;7.35;4.75;;;20.20;99.90;;;;;;5091117;28;20173;-67
2021/06/14 08:20:23;;;;;;;6.28;4.00;;;20.20;99.90;;;;;;5090850;28;20632;-67
2021/06/14 08:25:34;;;;;;;7.18;4.18;;;20.20;99.90;;;;;;5067727;28;20207;-67
2021/06/14 08:28:04;;;;;;;7.70;4.43;;;20.20;99.90;;;;;;5090547;28;20322;-74
2021/06/14 08:30:33;;;;;;;6.38;4.53;;;20.20;99.90;;;;;;5090686;28;20282;-69
2021/06/14 08:33:01;;;;;;;7.30;4.45;;;20.30;99.90;;;;;;5090796;28;20218;-75
2021/06/14 08:35:30;;;;;;;4.90;4.20;;;20.30;99.90;;;;;;5090153;28;20710;-76
2021/06/14 08:37:59;;;;;;;7.53;4.45;;;20.30;99.90;;;;;;5090066;28;20287;-76
2021/06/14 08:40:29;;;;;;;6.85;4.95;;;20.30;99.90;;;;;;5090390;28;20291;-71
2021/06/14 08:43:03;;;;;;;6.53;4.22;;;20.40;99.90;;;;;;5090329;28;20185;-76
2021/06/14 08:45:35;;;;;;;7.63;4.72;;;20.40;99.90;;;;;;5090503;28;20218;-74
2021/06/14 08:48:05;;;;;;;6.90;4.55;;;20.50;99.90;;;;;;5090565;28;20610;-72
2021/06/14 08:50:33;;;;;;;8.30;3.40;;;20.50;99.90;;;;;;5090220;28;20196;-71
2021/06/14 08:53:01;;;;;;;6.10;4.25;;;20.40;99.90;;;;;;5071113;28;20307;-67
2021/06/14 08:55:29;;;;;;;5.28;3.85;;;20.40;99.90;;;;;;5069464;28;20212;-70
2021/06/14 08:57:57;;;;;;;5.53;4.18;;;20.50;99.90;;;;;;5069951;28;20296;-77
2021/06/14 09:00:28;;;;;;;5.53;4.43;;;20.50;99.90;;;;;;5069975;28;20234;-73
2021/06/14 09:02:58;;;;;;;6.35;4.15;;;20.50;99.90;;;;;;5069944;28;20201;-73
2021/06/14 09:05:27;;;;;;;6.47;4.18;;;20.40;99.90;;;;;;5070401;28;20227;-72
2021/06/14 09:07:56;;;;;;;4.05;3.53;;;20.40;99.90;;;;;;5069445;28;20220;-71
2021/06/14 09:10:26;;;;;;;5.15;3.53;;;20.40;99.90;;;;;;5069731;28;20205;-74
2021/06/14 09:12:55;;;;;;;6.47;3.42;;;20.40;99.90;;;;;;5069913;28;20617;-74
2021/06/14 09:15:27;;;;;;;5.00;3.45;;;20.60;99.90;;;;;;5069445;28;20287;-71
2021/06/14 09:17:56;;;;;;;5.63;3.13;;;20.60;99.90;;;;;;5069247;28;20283;-70
2021/06/14 09:20:26;;;;;;;5.65;3.65;;;20.60;99.90;;;;;;5069495;28;20204;-70
2021/06/14 09:22:54;;;;;;;6.15;3.55;;;20.60;99.90;;;;;;5069205;28;20197;-69
2021/06/14 09:25:22;;;;;;;5.53;3.20;;;20.70;99.90;;;;;;5069252;28;20212;-76
2021/06/14 09:27:54;;;;;;;4.85;3.30;;;20.70;99.90;;;;;;5069414;28;20313;-75
2021/06/14 09:30:23;;;;;;;5.38;3.75;;;20.80;99.90;;;;;;5070257;28;20181;-75
2021/06/14 09:32:53;;;;;;;5.38;3.72;;;20.80;99.90;;;;;;5069916;28;20288;-76
2021/06/14 09:35:24;;;;;;;8.50;3.90;;;20.90;99.90;;;;;;5070130;28;20200;-71
2021/06/14 09:38:00;;;;;;;5.20;2.97;;;21.00;99.90;;;;;;5069368;28;20187;-71
2021/06/14 09:40:36;;;;;;;5.38;3.25;;;21.00;99.90;;;;;;5069892;28;20571;-67
2021/06/14 09:43:07;;;;;;;6.88;3.80;;;21.10;99.90;;;;;;5069519;28;20184;-77
2021/06/14 09:45:40;;;;;;;6.50;4.22;;;21.20;99.90;;;;;;5069284;28;20279;-76
2021/06/14 09:48:16;;;;;;;6.55;3.88;;;21.20;99.90;;;;;;5069606;28;20205;-74
2021/06/14 09:50:47;;;;;;;6.30;3.50;;;21.30;99.90;;;;;;5069509;28;20222;-65
2021/06/14 09:53:17;;;;;;;4.60;3.60;;;21.20;99.90;;;;;;5049087;28;20567;-67
2021/06/14 09:55:47;;;;;;;5.90;3.88;;;21.30;99.90;;;;;;5049347;28;20637;-69
2021/06/14 09:58:18;;;;;;;6.07;3.75;;;21.20;99.90;;;;;;5049194;28;20319;-66
2021/06/14 10:00:48;;;;;;;5.53;4.65;;;21.20;99.90;;;;;;5049459;28;20589;-67
2021/06/14 10:03:16;;;;;;;5.90;3.90;;;21.20;99.90;;;;;;5049490;28;20212;-67
2021/06/14 10:05:47;;;;;;;5.63;3.60;;;21.30;99.90;;;;;;5049209;28;20209;-66
2021/06/14 10:08:28;;;;;;;7.72;3.83;;;21.30;99.90;;;;;;5048579;28;20297;-68
2021/06/14 10:11:08;;;;;;;8.43;3.85;;;21.40;99.90;;;;;;5049153;28;21135;-68
2021/06/14 10:13:38;;;;;;;3.85;3.22;;;21.40;99.90;;;;;;5048967;28;20281;-67
2021/06/14 10:16:08;;;;;;;4.28;3.50;;;21.30;99.90;;;;;;5049526;28;20201;-77
2021/06/14 10:18:39;;;;;;;8.73;4.70;;;21.30;99.90;;;;;;5049020;28;20578;-73
2021/06/14 10:21:10;;;;;;;4.82;3.35;;;21.30;99.90;;;;;;5049296;28;20185;-75
2021/06/14 10:23:38;;;;;;;5.57;3.47;;;21.20;99.90;;;;;;5048800;28;20185;-74
2021/06/14 10:26:06;;;;;;;6.07;3.95;;;21.20;99.90;;;;;;5049312;28;20287;-73
2021/06/14 10:28:34;;;;;;;5.55;3.50;;;21.40;99.90;;;;;;5048755;28;20328;-71
2021/06/14 10:31:03;;;;;;;4.47;3.35;;;21.50;99.90;;;;;;5050068;28;20253;-76
2021/06/14 10:33:31;;;;;;;7.70;3.83;;;21.60;99.90;;;;;;5049685;28;20526;-68
2021/06/14 10:36:00;;;;;;;4.43;3.30;;;21.70;99.90;;;;;;5048988;28;20677;-71
2021/06/14 10:38:46;;;;;;;8.95;3.53;;;21.70;99.90;;;;;;5050025;28;20181;-71
2021/06/14 10:41:14;;;;;;;6.40;3.80;;;21.80;99.90;;;;;;5052016;28;20185;-70
2021/06/14 10:43:43;;;;;;;7.00;3.85;;;21.90;99.90;;;;;;5054770;28;20201;-72
2021/06/14 10:46:13;;;;;;;6.43;3.47;;;21.80;99.90;;;;;;5049068;28;20294;-68
2021/06/14 10:48:42;;;;;;;4.72;3.28;;;21.90;99.90;;;;;;5049008;28;20210;-73
2021/06/14 10:51:15;;;;;;;5.85;3.80;;;21.90;99.90;;;;;;5055829;28;20233;-74
2021/06/14 10:53:50;;;;;;;4.85;3.65;;;21.90;99.90;;;;;;5088461;28;20215;-67
2021/06/14 10:56:20;;;;;;;5.50;3.40;;;21.90;99.90;;;;;;5090888;28;20202;-68
2021/06/14 10:58:59;;;;;;;5.05;3.60;;;21.80;99.90;;;;;;5093409;28;20196;-76
2021/06/14 11:01:32;;;;;;;7.22;3.20;;;21.80;99.90;;;;;;5093708;28;20677;-74
2021/06/14 11:04:01;;;;;;;5.80;3.67;;;22.00;99.90;;;;;;5092710;28;20184;-72
2021/06/14 11:06:31;;;;;;;4.72;3.17;;;22.00;99.90;;;;;;5093573;28;20210;-75
2021/06/14 11:09:07;;;;;;;4.97;2.92;;;22.00;99.90;;;;;;5093448;28;20218;-71
2021/06/14 11:11:48;;;;;;;3.92;2.80;;;22.10;99.90;;;;;;5092909;28;20184;-71
2021/06/14 11:14:28;;;;;;;5.43;3.22;;;22.10;99.90;;;;;;5092320;28;20187;-75
2021/06/14 11:17:01;;;;;;;5.43;3.47;;;22.20;99.90;;;;;;5093064;28;20180;-79
2021/06/14 11:19:36;;;;;;;5.57;3.30;;;22.30;99.90;;;;;;5093014;28;20246;-65
2021/06/14 11:22:05;;;;;;;5.80;3.03;;;22.30;99.90;;;;;;5092109;28;20298;-75
2021/06/14 11:24:37;;;;;;;3.40;2.88;;;22.50;99.90;;;;;;5092185;28;20206;-74
2021/06/14 11:27:08;;;;;;;6.00;3.00;;;22.60;99.90;;;;;;5092104;28;20236;-74
2021/06/14 11:29:53;;;;;;;4.72;3.00;;;22.70;99.90;;;;;;5092001;28;20679;-74
2021/06/14 11:32:23;;;;;;;4.65;3.00;;;22.70;99.90;;;;;;5091947;28;20185;-74
2021/06/14 11:34:53;;;;;;;4.00;2.80;;;22.70;99.90;;;;;;5092120;28;20199;-74
2021/06/14 11:37:22;;;;;;;4.47;2.80;;;22.70;99.90;;;;;;5092019;28;20206;-75
2021/06/14 11:40:01;;;;;;;3.92;2.78;;;22.80;99.90;;;;;;5091545;28;20646;-73
2021/06/14 11:42:30;;;;;;;3.47;2.65;;;22.80;99.90;;;;;;5075862;28;20521;-74
2021/06/14 11:44:59;;;;;;;4.25;2.70;;;22.90;99.90;;;;;;5071919;28;20196;-76
2021/06/14 11:47:29;;;;;;;5.57;2.75;;;22.90;99.90;;;;;;5071282;28;20231;-74
2021/06/14 11:49:59;;;;;;;4.38;2.63;;;22.90;99.90;;;;;;5071651;28;20228;-74
2021/06/14 11:52:32;;;;;;;3.22;2.30;;;22.80;99.90;;;;;;5085499;28;20215;-75
2021/06/14 11:55:10;;;;;;;4.75;2.53;;;22.90;99.90;;;;;;5091577;28;20271;-74
2021/06/14 11:57:39;;;;;;;2.85;2.45;;;22.90;99.90;;;;;;5091664;28;20188;-75
2021/06/14 12:00:11;;;;;;;2.83;2.25;;;23.00;99.90;;;;;;5088786;28;20242;-74
2021/06/14 12:02:40;;;;;;;6.32;2.42;;;23.00;99.90;;;;;;5070768;28;20663;-73
2021/06/14 12:05:11;;;;;;;3.42;2.30;;;23.00;99.90;;;;;;5070933;28;20246;-75
2021/06/14 12:07:42;;;;;;;3.15;2.50;;;23.00;99.90;;;;;;5069932;28;20272;-74
2021/06/14 12:10:13;;;;;;;3.80;2.10;;;23.00;99.90;;;;;;5070879;28;20540;-74
2021/06/14 12:12:44;;;;;;;3.78;2.10;;;23.00;99.90;;;;;;5070964;28;20183;-74
2021/06/14 12:15:13;;;;;;;2.70;2.10;;;23.00;99.90;;;;;;5070997;28;20189;-74
2021/06/14 12:17:44;;;;;;;4.22;2.17;;;23.10;99.90;;;;;;5070381;28;20374;-73
2021/06/14 12:20:13;;;;;;;4.38;2.50;;;23.00;99.90;;;;;;5071013;28;20236;-75
2021/06/14 12:22:41;;;;;;;5.45;2.50;;;23.00;99.90;;;;;;5070112;28;20547;-74
2021/06/14 12:25:13;;;;;;;3.13;2.80;;;23.10;99.90;;;;;;5070634;28;20218;-74
2021/06/14 12:27:41;;;;;;;5.60;2.95;;;23.20;99.90;;;;;;5070349;28;20315;-74
2021/06/14 12:30:11;;;;;;;3.85;2.55;;;23.30;99.90;;;;;;5070648;28;20653;-73
2021/06/14 12:32:40;;;;;;;4.03;2.53;;;23.40;99.90;;;;;;5070797;28;20209;-72
2021/06/14 12:35:10;;;;;;;6.38;2.63;;;23.40;99.90;;;;;;5070618;28;20254;-72
2021/06/14 12:37:39;;;;;;;3.72;2.33;;;23.50;99.90;;;;;;5070177;28;20240;-74
2021/06/14 12:40:10;;;;;;;4.10;2.78;;;23.40;99.90;;;;;;5070796;28;20201;-75
2021/06/14 12:42:40;;;;;;;3.25;2.30;;;23.40;99.90;;;;;;5070563;28;20196;-74
2021/06/14 12:45:10;;;;;;;3.72;2.83;;;23.50;99.90;;;;;;5070451;28;20222;-72
2021/06/14 12:47:42;;;;;;;6.50;2.53;;;23.60;99.90;;;;;;5071734;28;20383;-74
2021/06/14 12:50:14;;;;;;;4.38;3.10;;;23.50;99.90;;;;;;5071229;28;20674;-78
2021/06/14 12:52:42;;;;;;;4.22;2.75;;;23.60;99.90;;;;;;5088270;28;20272;-77
2021/06/14 12:55:18;;;;;;;4.13;3.13;;;23.70;99.90;;;;;;5090314;28;20298;-75
2021/06/14 12:57:47;;;;;;;3.65;3.08;;;23.70;99.90;;;;;;5090633;28;20412;-72
2021/06/14 13:00:17;;;;;;;4.97;3.08;;;23.70;99.90;;;;;;5090507;28;20236;-72
2021/06/14 13:02:51;;;;;;;5.03;2.97;;;23.80;99.90;;;;;;5090472;28;20239;-72